createdAt,value
2018-07-22T00:00:24.822Z,20.81
2018-07-22T00:01:25.386Z,20.87
2018-07-22T00:02:25.956Z,20.78
2018-07-22T00:03:26.535Z,20.69
2018-07-22T00:04:27.085Z,20.70
2018-07-22T00:05:27.639Z,20.69
2018-07-22T00:06:28.194Z,20.72
2018-07-22T00:07:28.750Z,20.60
2018-07-22T00:08:29.303Z,20.55
2018-07-22T00:09:29.858Z,20.54
2018-07-22T00:10:30.403Z,20.48
2018-07-22T00:11:30.959Z,20.47
2018-07-22T00:12:31.515Z,20.39
2018-07-22T00:13:32.070Z,20.32
2018-07-22T00:14:32.624Z,20.28
2018-07-22T00:15:33.173Z,20.19
2018-07-22T00:16:33.728Z,20.36
2018-07-22T00:17:34.284Z,20.25
2018-07-22T00:18:34.845Z,20.28
2018-07-22T00:19:35.393Z,20.19
2018-07-22T00:20:35.953Z,20.19
2018-07-22T00:21:36.493Z,20.10
2018-07-22T00:22:37.041Z,20.10
2018-07-22T00:23:37.595Z,20.16
2018-07-22T00:24:38.146Z,20.14
2018-07-22T00:25:38.704Z,20.11
2018-07-22T00:26:39.254Z,20.07
2018-07-22T00:27:39.811Z,20.06
2018-07-22T00:28:40.364Z,20.13
2018-07-22T00:29:40.921Z,20.14
2018-07-22T00:30:41.476Z,20.13
2018-07-22T00:31:42.035Z,20.22
2018-07-22T00:32:42.585Z,20.10
2018-07-22T00:33:43.139Z,20.13
2018-07-22T00:34:43.698Z,20.16
2018-07-22T00:35:44.252Z,20.17
2018-07-22T00:36:44.808Z,20.09
2018-07-22T00:37:45.360Z,20.02
2018-07-22T00:38:45.939Z,20.02
2018-07-22T00:39:46.471Z,20.02
2018-07-22T00:40:47.031Z,19.91
2018-07-22T00:41:47.584Z,19.87
2018-07-22T00:42:48.139Z,19.96
2018-07-22T00:43:48.693Z,19.89
2018-07-22T00:44:49.250Z,19.87
2018-07-22T00:45:49.804Z,19.81
2018-07-22T00:46:50.361Z,19.85
2018-07-22T00:47:50.916Z,19.80
2018-07-22T00:48:51.473Z,19.81
2018-07-22T00:49:52.043Z,19.81
2018-07-22T00:50:52.575Z,19.70
2018-07-22T00:51:53.129Z,19.71
2018-07-22T00:52:53.687Z,19.66
2018-07-22T00:53:54.242Z,19.70
2018-07-22T00:54:54.797Z,19.74
2018-07-22T00:55:55.358Z,19.80
2018-07-22T00:56:55.905Z,19.81
2018-07-22T00:57:56.454Z,19.85
2018-07-22T00:58:57.010Z,19.89
2018-07-22T00:59:57.651Z,19.77
2018-07-22T01:00:58.115Z,19.79
2018-07-22T01:01:58.664Z,19.71
2018-07-22T01:02:59.216Z,19.69
2018-07-22T01:03:59.774Z,19.70
2018-07-22T01:05:00.329Z,19.73
2018-07-22T01:06:00.884Z,19.70
2018-07-22T01:07:01.441Z,19.71
2018-07-22T01:08:01.993Z,19.61
2018-07-22T01:09:02.546Z,19.67
2018-07-22T01:10:03.097Z,19.61
2018-07-22T01:11:03.652Z,19.59
2018-07-22T01:12:04.201Z,19.59
2018-07-22T01:13:04.757Z,19.61
2018-07-22T01:14:05.309Z,19.56
2018-07-22T01:15:05.867Z,19.55
2018-07-22T01:16:06.426Z,19.58
2018-07-22T01:17:06.977Z,19.49
2018-07-22T01:18:07.532Z,19.51
2018-07-22T01:19:08.081Z,19.55
2018-07-22T01:20:08.638Z,19.55
2018-07-22T01:21:09.196Z,19.56
2018-07-22T01:22:09.750Z,19.49
2018-07-22T01:23:10.295Z,19.49
2018-07-22T01:24:10.849Z,19.43
2018-07-22T01:25:11.405Z,19.47
2018-07-22T01:26:11.956Z,19.40
2018-07-22T01:27:12.512Z,19.41
2018-07-22T01:28:13.065Z,19.41
2018-07-22T01:29:13.623Z,19.36
2018-07-22T01:30:14.182Z,19.31
2018-07-22T01:31:14.735Z,19.27
2018-07-22T01:32:15.290Z,19.27
2018-07-22T01:33:15.839Z,19.36
2018-07-22T01:34:16.396Z,19.36
2018-07-22T01:35:16.955Z,19.31
2018-07-22T01:36:17.504Z,19.21
2018-07-22T01:37:18.069Z,19.22
2018-07-22T01:38:18.636Z,19.31
2018-07-22T01:39:19.189Z,19.16
2018-07-22T01:40:19.756Z,19.24
2018-07-22T01:41:20.313Z,19.15
2018-07-22T01:42:20.864Z,19.15
2018-07-22T01:43:21.489Z,19.15
2018-07-22T01:44:21.967Z,19.15
2018-07-22T01:45:22.527Z,19.12
2018-07-22T01:46:23.080Z,19.14
2018-07-22T01:47:23.634Z,19.11
2018-07-22T01:48:24.192Z,19.06
2018-07-22T01:49:24.738Z,19.04
2018-07-22T01:50:25.288Z,19.04
2018-07-22T01:51:25.842Z,19.00
2018-07-22T01:52:26.416Z,19.06
2018-07-22T01:53:26.948Z,19.02
2018-07-22T01:54:27.506Z,19.04
2018-07-22T01:55:28.061Z,18.99
2018-07-22T01:56:28.615Z,19.02
2018-07-22T01:57:29.165Z,18.96
2018-07-22T01:58:29.723Z,18.95
2018-07-22T01:59:30.272Z,19.00
2018-07-22T02:00:30.827Z,19.02
2018-07-22T02:01:31.434Z,18.89
2018-07-22T02:02:31.945Z,18.81
2018-07-22T02:03:32.501Z,18.87
2018-07-22T02:04:33.059Z,18.89
2018-07-22T02:05:33.611Z,18.83
2018-07-22T02:06:34.199Z,18.83
2018-07-22T02:07:34.714Z,18.84
2018-07-22T02:08:35.271Z,18.83
2018-07-22T02:09:35.823Z,18.83
2018-07-22T02:10:36.376Z,18.89
2018-07-22T02:11:36.931Z,18.84
2018-07-22T02:12:37.483Z,18.92
2018-07-22T02:13:38.030Z,18.81
2018-07-22T02:14:38.588Z,18.92
2018-07-22T02:15:39.140Z,18.92
2018-07-22T02:16:39.695Z,18.90
2018-07-22T02:17:40.248Z,18.96
2018-07-22T02:18:40.806Z,18.95
2018-07-22T02:19:41.396Z,18.92
2018-07-22T02:20:41.975Z,18.83
2018-07-22T02:21:42.481Z,18.81
2018-07-22T02:22:43.044Z,18.69
2018-07-22T02:23:43.599Z,18.71
2018-07-22T02:24:44.154Z,18.63
2018-07-22T02:25:44.709Z,18.65
2018-07-22T02:26:45.262Z,18.56
2018-07-22T02:27:45.814Z,18.59
2018-07-22T02:28:46.372Z,18.53
2018-07-22T02:29:46.923Z,18.48
2018-07-22T02:30:47.477Z,18.48
2018-07-22T02:31:48.023Z,18.58
2018-07-22T02:32:48.568Z,18.50
2018-07-22T02:33:49.118Z,18.41
2018-07-22T02:34:49.673Z,18.44
2018-07-22T02:35:50.227Z,18.43
2018-07-22T02:36:50.783Z,18.40
2018-07-22T02:37:51.335Z,18.43
2018-07-22T02:38:51.892Z,18.45
2018-07-22T02:39:52.440Z,18.45
2018-07-22T02:40:53.029Z,18.53
2018-07-22T02:41:53.549Z,18.53
2018-07-22T02:42:54.104Z,18.53
2018-07-22T02:43:54.655Z,18.45
2018-07-22T02:44:55.213Z,18.44
2018-07-22T02:45:55.758Z,18.41
2018-07-22T02:46:56.312Z,18.47
2018-07-22T02:47:56.859Z,18.47
2018-07-22T02:48:57.415Z,18.41
2018-07-22T02:49:57.961Z,18.38
2018-07-22T02:50:58.518Z,18.38
2018-07-22T02:51:59.073Z,18.38
2018-07-22T02:52:59.635Z,18.38
2018-07-22T02:54:00.188Z,18.34
2018-07-22T02:55:00.740Z,18.34
2018-07-22T02:56:01.299Z,18.32
2018-07-22T02:57:01.845Z,18.29
2018-07-22T02:58:02.394Z,18.37
2018-07-22T02:59:02.949Z,18.40
2018-07-22T03:00:03.505Z,18.30
2018-07-22T03:01:04.053Z,18.25
2018-07-22T03:02:04.601Z,18.25
2018-07-22T03:03:05.164Z,18.26
2018-07-22T03:04:05.708Z,18.25
2018-07-22T03:05:06.266Z,18.26
2018-07-22T03:06:06.819Z,18.19
2018-07-22T03:07:07.376Z,18.25
2018-07-22T03:08:07.924Z,18.14
2018-07-22T03:09:08.483Z,18.14
2018-07-22T03:10:09.041Z,18.12
2018-07-22T03:11:09.594Z,18.14
2018-07-22T03:12:10.146Z,18.20
2018-07-22T03:13:10.701Z,18.08
2018-07-22T03:14:11.254Z,18.14
2018-07-22T03:15:11.810Z,18.14
2018-07-22T03:16:12.368Z,18.10
2018-07-22T03:17:12.926Z,18.01
2018-07-22T03:18:13.477Z,18.00
2018-07-22T03:19:14.031Z,17.95
2018-07-22T03:20:14.581Z,18.04
2018-07-22T03:21:15.137Z,17.95
2018-07-22T03:22:15.694Z,17.98
2018-07-22T03:23:16.249Z,18.03
2018-07-22T03:24:16.801Z,18.00
2018-07-22T03:25:17.357Z,18.03
2018-07-22T03:26:17.920Z,17.93
2018-07-22T03:27:18.472Z,17.92
2018-07-22T03:28:19.029Z,17.89
2018-07-22T03:29:19.584Z,17.83
2018-07-22T03:30:20.142Z,17.87
2018-07-22T03:31:20.686Z,17.83
2018-07-22T03:32:21.240Z,17.83
2018-07-22T03:33:21.799Z,17.87
2018-07-22T03:34:22.354Z,17.86
2018-07-22T03:35:22.909Z,17.79
2018-07-22T03:36:23.465Z,17.83
2018-07-22T03:37:24.023Z,17.83
2018-07-22T03:38:24.604Z,17.80
2018-07-22T03:39:25.140Z,17.71
2018-07-22T03:40:25.696Z,17.77
2018-07-22T03:41:26.252Z,17.77
2018-07-22T03:42:26.803Z,17.74
2018-07-22T03:43:27.366Z,17.75
2018-07-22T03:44:27.918Z,17.70
2018-07-22T03:45:28.475Z,17.70
2018-07-22T03:46:29.033Z,17.68
2018-07-22T03:47:29.672Z,17.71
2018-07-22T03:48:30.146Z,17.71
2018-07-22T03:49:30.702Z,17.63
2018-07-22T03:50:31.252Z,17.60
2018-07-22T03:51:31.804Z,17.55
2018-07-22T03:52:32.361Z,17.56
2018-07-22T03:53:32.910Z,17.56
2018-07-22T03:54:33.467Z,17.56
2018-07-22T03:55:34.025Z,17.64
2018-07-22T03:56:34.583Z,17.64
2018-07-22T03:57:35.141Z,17.51
2018-07-22T03:58:35.701Z,17.45
2018-07-22T03:59:36.263Z,17.55
2018-07-22T04:00:36.817Z,17.51
2018-07-22T04:01:37.374Z,17.52
2018-07-22T04:02:37.927Z,17.49
2018-07-22T04:03:38.488Z,17.52
2018-07-22T04:04:39.045Z,17.48
2018-07-22T04:05:39.605Z,17.49
2018-07-22T04:06:40.157Z,17.44
2018-07-22T04:07:40.708Z,17.42
2018-07-22T04:08:41.259Z,17.44
2018-07-22T04:09:41.809Z,17.39
2018-07-22T04:10:42.363Z,17.44
2018-07-22T04:11:42.922Z,17.39
2018-07-22T04:12:43.479Z,17.45
2018-07-22T04:13:44.045Z,17.48
2018-07-22T04:14:44.597Z,17.46
2018-07-22T04:15:45.156Z,17.51
2018-07-22T04:16:46.015Z,17.41
2018-07-22T04:17:46.469Z,17.39
2018-07-22T04:18:47.030Z,17.39
2018-07-22T04:19:47.595Z,17.39
2018-07-22T04:20:48.150Z,17.48
2018-07-22T04:21:48.711Z,17.49
2018-07-22T04:22:49.270Z,17.54
2018-07-22T04:23:49.826Z,17.63
2018-07-22T04:24:50.386Z,17.67
2018-07-22T04:25:51.001Z,17.59
2018-07-22T04:26:51.544Z,17.75
2018-07-22T04:27:52.133Z,17.75
2018-07-22T04:28:52.672Z,17.74
2018-07-22T04:29:53.226Z,17.71
2018-07-22T04:30:53.789Z,17.77
2018-07-22T04:31:54.346Z,17.75
2018-07-22T04:32:54.906Z,17.70
2018-07-22T04:33:55.464Z,17.72
2018-07-22T04:34:56.026Z,17.74
2018-07-22T04:35:56.584Z,17.75
2018-07-22T04:36:57.149Z,17.83
2018-07-22T04:37:57.712Z,17.85
2018-07-22T04:38:58.260Z,17.86
2018-07-22T04:39:58.825Z,17.86
2018-07-22T04:40:59.437Z,17.92
2018-07-22T04:41:59.935Z,17.87
2018-07-22T04:43:00.494Z,18.01
2018-07-22T04:44:01.054Z,18.08
2018-07-22T04:45:01.689Z,18.32
2018-07-22T04:46:02.184Z,18.55
2018-07-22T04:47:02.743Z,18.80
2018-07-22T04:48:03.307Z,18.95
2018-07-22T04:49:03.860Z,19.04
2018-07-22T04:50:04.423Z,19.09
2018-07-22T04:51:04.986Z,19.37
2018-07-22T04:52:05.545Z,19.30
2018-07-22T04:53:06.104Z,19.30
2018-07-22T04:54:06.664Z,19.41
2018-07-22T04:55:07.217Z,19.49
2018-07-22T04:56:07.777Z,19.44
2018-07-22T04:57:08.337Z,19.47
2018-07-22T04:58:08.899Z,19.47
2018-07-22T04:59:09.461Z,19.52
2018-07-22T05:00:10.024Z,19.44
2018-07-22T05:01:10.592Z,19.49
2018-07-22T05:02:11.164Z,19.55
2018-07-22T05:03:11.712Z,19.48
2018-07-22T05:04:12.266Z,19.44
2018-07-22T05:05:12.824Z,19.41
2018-07-22T05:06:13.385Z,19.49
2018-07-22T05:07:13.944Z,19.43
2018-07-22T05:08:14.498Z,19.29
2018-07-22T05:09:15.065Z,19.24
2018-07-22T05:10:15.620Z,19.41
2018-07-22T05:11:16.182Z,19.84
2018-07-22T05:12:16.743Z,20.25
2018-07-22T05:13:17.297Z,20.54
2018-07-22T05:14:17.859Z,20.75
2018-07-22T05:15:18.423Z,20.81
2018-07-22T05:16:18.990Z,20.92
2018-07-22T05:17:19.549Z,21.05
2018-07-22T05:18:20.114Z,20.91
2018-07-22T05:19:20.680Z,21.17
2018-07-22T05:20:21.244Z,21.12
2018-07-22T05:21:21.806Z,21.30
2018-07-22T05:22:22.367Z,21.40
2018-07-22T05:23:22.930Z,21.60
2018-07-22T05:24:23.494Z,21.80
2018-07-22T05:25:24.054Z,21.89
2018-07-22T05:26:24.622Z,21.86
2018-07-22T05:27:25.188Z,21.99
2018-07-22T05:28:25.836Z,21.99
2018-07-22T05:29:26.318Z,21.92
2018-07-22T05:30:26.899Z,21.89
2018-07-22T05:31:27.465Z,22.03
2018-07-22T05:32:28.030Z,22.23
2018-07-22T05:33:28.600Z,22.44
2018-07-22T05:34:29.167Z,22.65
2018-07-22T05:35:29.744Z,22.54
2018-07-22T05:36:30.302Z,22.54
2018-07-22T05:37:30.862Z,22.33
2018-07-22T05:38:31.436Z,22.26
2018-07-22T05:39:32.018Z,22.38
2018-07-22T05:40:32.610Z,22.65
2018-07-22T05:41:33.185Z,22.72
2018-07-22T05:42:33.756Z,23.09
2018-07-22T05:43:34.324Z,23.31
2018-07-22T05:44:34.888Z,23.53
2018-07-22T05:45:35.461Z,23.66
2018-07-22T05:46:36.038Z,23.83
2018-07-22T05:47:36.600Z,24.02
2018-07-22T05:48:37.170Z,23.99
2018-07-22T05:49:37.739Z,23.84
2018-07-22T05:50:38.310Z,23.49
2018-07-22T05:51:38.884Z,23.56
2018-07-22T05:52:39.456Z,23.90
2018-07-22T05:53:40.032Z,23.99
2018-07-22T05:54:40.600Z,24.31
2018-07-22T05:55:41.188Z,24.39
2018-07-22T05:56:41.759Z,24.42
2018-07-22T05:57:42.322Z,24.45
2018-07-22T05:58:42.896Z,24.17
2018-07-22T05:59:43.491Z,24.16
2018-07-22T06:00:44.057Z,24.23
2018-07-22T06:01:44.644Z,23.87
2018-07-22T06:02:45.216Z,23.58
2018-07-22T06:03:45.836Z,23.41
2018-07-22T06:04:46.394Z,23.24
2018-07-22T06:05:46.959Z,22.99
2018-07-22T06:06:47.529Z,22.81
2018-07-22T06:07:48.099Z,22.55
2018-07-22T06:08:48.660Z,22.42
2018-07-22T06:09:49.232Z,22.54
2018-07-22T06:10:49.810Z,22.87
2018-07-22T06:11:50.439Z,23.00
2018-07-22T06:12:50.944Z,23.37
2018-07-22T06:13:51.531Z,23.69
2018-07-22T06:14:52.110Z,23.98
2018-07-22T06:15:52.681Z,24.28
2018-07-22T06:16:53.273Z,24.42
2018-07-22T06:17:53.826Z,24.33
2018-07-22T06:18:54.399Z,24.32
2018-07-22T06:19:54.973Z,24.64
2018-07-22T06:20:55.550Z,25.04
2018-07-22T06:21:56.114Z,25.17
2018-07-22T06:22:56.687Z,25.09
2018-07-22T06:23:57.260Z,25.31
2018-07-22T06:24:57.831Z,25.71
2018-07-22T06:25:58.411Z,25.61
2018-07-22T06:26:58.982Z,25.51
2018-07-22T06:27:59.552Z,25.62
2018-07-22T06:29:00.133Z,25.76
2018-07-22T06:30:00.708Z,25.91
2018-07-22T06:31:01.283Z,26.12
2018-07-22T06:32:01.898Z,26.47
2018-07-22T06:33:02.463Z,26.31
2018-07-22T06:34:03.037Z,25.72
2018-07-22T06:35:03.607Z,25.75
2018-07-22T06:36:04.172Z,25.78
2018-07-22T06:37:04.736Z,25.71
2018-07-22T06:38:05.311Z,25.73
2018-07-22T06:39:05.889Z,26.05
2018-07-22T06:40:06.462Z,25.99
2018-07-22T06:41:07.038Z,26.22
2018-07-22T06:42:07.601Z,26.28
2018-07-22T06:43:08.173Z,26.44
2018-07-22T06:44:08.748Z,26.34
2018-07-22T06:45:09.321Z,26.40
2018-07-22T06:46:09.923Z,26.47
2018-07-22T06:47:10.463Z,26.32
2018-07-22T06:48:11.043Z,26.66
2018-07-22T06:49:11.610Z,26.74
2018-07-22T06:50:12.182Z,26.88
2018-07-22T06:51:12.754Z,26.87
2018-07-22T06:52:13.331Z,26.84
2018-07-22T06:53:13.903Z,26.98
2018-07-22T06:54:14.483Z,27.18
2018-07-22T06:55:15.043Z,27.48
2018-07-22T06:56:15.616Z,27.58
2018-07-22T06:57:16.220Z,27.99
2018-07-22T06:58:16.758Z,28.36
2018-07-22T06:59:17.333Z,28.78
2018-07-22T07:00:17.907Z,28.96
2018-07-22T07:01:18.485Z,28.96
2018-07-22T07:02:19.063Z,28.57
2018-07-22T07:03:19.630Z,28.25
2018-07-22T07:04:20.204Z,28.18
2018-07-22T07:05:20.829Z,28.13
2018-07-22T07:06:21.348Z,28.08
2018-07-22T07:07:21.926Z,28.27
2018-07-22T07:08:22.499Z,28.52
2018-07-22T07:09:23.071Z,28.60
2018-07-22T07:10:23.643Z,28.67
2018-07-22T07:11:24.218Z,29.11
2018-07-22T07:12:24.799Z,29.07
2018-07-22T07:13:25.366Z,29.08
2018-07-22T07:14:25.944Z,28.75
2018-07-22T07:15:26.517Z,28.66
2018-07-22T07:16:27.088Z,28.84
2018-07-22T07:17:27.663Z,28.94
2018-07-22T07:18:28.236Z,29.10
2018-07-22T07:19:28.809Z,28.77
2018-07-22T07:20:29.401Z,28.55
2018-07-22T07:21:29.966Z,28.50
2018-07-22T07:22:30.542Z,28.60
2018-07-22T07:23:31.119Z,28.67
2018-07-22T07:24:31.698Z,29.00
2018-07-22T07:25:32.275Z,29.08
2018-07-22T07:26:32.857Z,29.44
2018-07-22T07:27:33.441Z,29.23
2018-07-22T07:28:34.003Z,29.29
2018-07-22T07:29:34.582Z,29.41
2018-07-22T07:30:35.186Z,29.57
2018-07-22T07:31:35.741Z,29.74
2018-07-22T07:32:36.308Z,29.60
2018-07-22T07:33:36.888Z,29.74
2018-07-22T07:34:37.468Z,29.44
2018-07-22T07:35:38.061Z,29.35
2018-07-22T07:36:38.626Z,29.23
2018-07-22T07:37:39.201Z,29.19
2018-07-22T07:38:39.775Z,29.35
2018-07-22T07:39:40.355Z,29.64
2018-07-22T07:40:40.928Z,29.69
2018-07-22T07:41:41.497Z,29.63
2018-07-22T07:42:42.074Z,29.35
2018-07-22T07:43:42.664Z,29.23
2018-07-22T07:44:43.215Z,29.03
2018-07-22T07:45:43.784Z,29.15
2018-07-22T07:46:44.357Z,28.97
2018-07-22T07:47:44.926Z,28.82
2018-07-22T07:48:45.490Z,28.67
2018-07-22T07:49:46.064Z,28.57
2018-07-22T07:50:46.638Z,28.45
2018-07-22T07:51:47.205Z,28.15
2018-07-22T07:52:47.780Z,27.96
2018-07-22T07:53:48.351Z,28.29
2018-07-22T07:54:48.928Z,28.62
2018-07-22T07:55:49.507Z,28.91
2018-07-22T07:56:50.080Z,29.17
2018-07-22T07:57:50.653Z,29.27
2018-07-22T07:58:51.222Z,29.63
2018-07-22T07:59:51.793Z,30.06
2018-07-22T08:00:52.368Z,30.03
2018-07-22T08:01:52.943Z,29.75
2018-07-22T08:02:53.518Z,29.89
2018-07-22T08:03:54.139Z,30.19
2018-07-22T08:04:54.662Z,30.30
2018-07-22T08:05:55.239Z,30.28
2018-07-22T08:06:55.808Z,29.72
2018-07-22T08:07:56.381Z,29.69
2018-07-22T08:08:56.957Z,29.67
2018-07-22T08:09:57.533Z,29.71
2018-07-22T08:10:58.114Z,29.72
2018-07-22T08:11:58.677Z,29.60
2018-07-22T08:12:59.254Z,29.57
2018-07-22T08:13:59.819Z,29.50
2018-07-22T08:15:00.396Z,29.44
2018-07-22T08:16:00.967Z,29.32
2018-07-22T08:17:01.544Z,29.22
2018-07-22T08:18:02.116Z,29.08
2018-07-22T08:19:02.696Z,29.38
2018-07-22T08:20:03.264Z,29.56
2018-07-22T08:21:03.830Z,29.84
2018-07-22T08:22:04.434Z,30.19
2018-07-22T08:23:04.964Z,30.12
2018-07-22T08:24:05.540Z,29.90
2018-07-22T08:25:06.116Z,29.99
2018-07-22T08:26:06.737Z,30.05
2018-07-22T08:27:07.257Z,30.03
2018-07-22T08:28:07.833Z,30.18
2018-07-22T08:29:08.407Z,30.38
2018-07-22T08:30:09.023Z,30.37
2018-07-22T08:31:09.551Z,30.64
2018-07-22T08:32:10.124Z,30.57
2018-07-22T08:33:10.699Z,30.80
2018-07-22T08:34:11.276Z,30.69
2018-07-22T08:35:11.856Z,30.68
2018-07-22T08:36:12.425Z,30.83
2018-07-22T08:37:12.998Z,30.90
2018-07-22T08:38:13.567Z,30.99
2018-07-22T08:39:14.189Z,31.02
2018-07-22T08:40:14.763Z,30.97
2018-07-22T08:41:15.398Z,31.46
2018-07-22T08:42:16.010Z,31.73
2018-07-22T08:43:16.586Z,31.76
2018-07-22T08:44:17.162Z,31.40
2018-07-22T08:45:17.740Z,31.37
2018-07-22T08:46:18.318Z,31.57
2018-07-22T08:47:18.890Z,31.80
2018-07-22T08:48:19.458Z,31.99
2018-07-22T08:49:20.026Z,31.73
2018-07-22T08:50:20.602Z,31.76
2018-07-22T08:51:21.178Z,31.95
2018-07-22T08:52:21.753Z,31.96
2018-07-22T08:53:22.332Z,32.37
2018-07-22T08:54:22.899Z,32.43
2018-07-22T08:55:23.481Z,32.51
2018-07-22T08:56:24.051Z,32.33
2018-07-22T08:57:24.621Z,32.66
2018-07-22T08:58:25.198Z,32.85
2018-07-22T08:59:25.774Z,32.98
2018-07-22T09:00:26.351Z,32.73
2018-07-22T09:01:26.933Z,32.44
2018-07-22T09:02:27.508Z,32.17
2018-07-22T09:03:28.088Z,32.43
2018-07-22T09:04:28.656Z,32.55
2018-07-22T09:05:29.256Z,32.62
2018-07-22T09:06:29.802Z,32.66
2018-07-22T09:07:30.384Z,32.63
2018-07-22T09:08:30.957Z,32.43
2018-07-22T09:09:31.533Z,32.43
2018-07-22T09:10:32.108Z,32.71
2018-07-22T09:11:32.689Z,32.88
2018-07-22T09:12:33.266Z,33.05
2018-07-22T09:13:33.841Z,32.99
2018-07-22T09:14:34.419Z,33.11
2018-07-22T09:15:34.996Z,32.86
2018-07-22T09:16:35.572Z,32.47
2018-07-22T09:17:36.168Z,32.15
2018-07-22T09:18:36.730Z,31.97
2018-07-22T09:19:37.299Z,32.12
2018-07-22T09:20:37.877Z,32.36
2018-07-22T09:21:38.447Z,32.48
2018-07-22T09:22:39.022Z,32.67
2018-07-22T09:23:39.597Z,32.73
2018-07-22T09:24:40.169Z,32.70
2018-07-22T09:25:40.742Z,32.63
2018-07-22T09:26:41.312Z,32.89
2018-07-22T09:27:41.890Z,32.89
2018-07-22T09:28:42.464Z,32.62
2018-07-22T09:29:43.035Z,32.15
2018-07-22T09:30:43.608Z,31.97
2018-07-22T09:31:44.185Z,31.96
2018-07-22T09:32:44.762Z,32.00
2018-07-22T09:33:45.340Z,31.73
2018-07-22T09:34:45.911Z,31.58
2018-07-22T09:35:46.530Z,31.84
2018-07-22T09:36:47.060Z,31.93
2018-07-22T09:37:47.629Z,32.14
2018-07-22T09:38:48.202Z,32.05
2018-07-22T09:39:48.780Z,32.17
2018-07-22T09:40:49.357Z,32.17
2018-07-22T09:41:49.942Z,32.21
2018-07-22T09:42:50.511Z,32.43
2018-07-22T09:43:51.081Z,32.63
2018-07-22T09:44:51.650Z,32.71
2018-07-22T09:45:52.225Z,32.34
2018-07-22T09:46:52.798Z,32.47
2018-07-22T09:47:53.370Z,32.32
2018-07-22T09:48:53.946Z,32.11
2018-07-22T09:49:54.515Z,32.29
2018-07-22T09:50:55.085Z,32.19
2018-07-22T09:51:55.656Z,32.33
2018-07-22T09:52:56.234Z,32.41
2018-07-22T09:53:56.809Z,32.83
2018-07-22T09:54:57.384Z,33.08
2018-07-22T09:55:57.961Z,33.27
2018-07-22T09:56:58.540Z,33.53
2018-07-22T09:57:59.115Z,33.53
2018-07-22T09:58:59.691Z,33.72
2018-07-22T10:00:00.262Z,33.89
2018-07-22T10:01:00.829Z,33.55
2018-07-22T10:02:01.410Z,33.28
2018-07-22T10:03:01.979Z,32.96
2018-07-22T10:04:02.552Z,32.86
2018-07-22T10:05:03.128Z,32.70
2018-07-22T10:06:03.707Z,32.76
2018-07-22T10:07:04.271Z,32.96
2018-07-22T10:08:04.849Z,32.74
2018-07-22T10:09:05.418Z,32.10
2018-07-22T10:10:05.994Z,32.06
2018-07-22T10:11:06.586Z,32.19
2018-07-22T10:12:07.145Z,32.14
2018-07-22T10:13:07.722Z,32.52
2018-07-22T10:14:08.301Z,32.86
2018-07-22T10:15:08.880Z,32.74
2018-07-22T10:16:09.456Z,32.92
2018-07-22T10:17:10.025Z,33.28
2018-07-22T10:18:10.601Z,33.52
2018-07-22T10:19:11.168Z,33.48
2018-07-22T10:20:11.744Z,33.77
2018-07-22T10:21:12.321Z,33.99
2018-07-22T10:22:12.898Z,34.09
2018-07-22T10:23:13.469Z,34.09
2018-07-22T10:24:14.042Z,33.87
2018-07-22T10:25:14.619Z,34.02
2018-07-22T10:26:15.190Z,34.11
2018-07-22T10:27:15.767Z,34.17
2018-07-22T10:28:16.341Z,34.29
2018-07-22T10:29:16.918Z,34.23
2018-07-22T10:30:17.492Z,33.86
2018-07-22T10:31:18.073Z,33.56
2018-07-22T10:32:18.652Z,33.52
2018-07-22T10:33:19.225Z,33.58
2018-07-22T10:34:19.804Z,33.67
2018-07-22T10:35:20.377Z,33.82
2018-07-22T10:36:20.945Z,33.89
2018-07-22T10:37:21.520Z,33.86
2018-07-22T10:38:22.095Z,34.01
2018-07-22T10:39:22.678Z,34.05
2018-07-22T10:40:23.247Z,34.24
2018-07-22T10:41:23.816Z,34.19
2018-07-22T10:42:24.388Z,34.11
2018-07-22T10:43:25.000Z,33.99
2018-07-22T10:44:25.539Z,33.49
2018-07-22T10:45:26.114Z,33.30
2018-07-22T10:46:26.690Z,33.33
2018-07-22T10:47:27.268Z,33.37
2018-07-22T10:48:27.844Z,33.46
2018-07-22T10:49:28.412Z,33.79
2018-07-22T10:50:28.989Z,33.89
2018-07-22T10:51:29.586Z,34.20
2018-07-22T10:52:30.143Z,34.35
2018-07-22T10:53:30.716Z,34.76
2018-07-22T10:54:31.295Z,34.89
2018-07-22T10:55:31.872Z,35.01
2018-07-22T10:56:32.448Z,34.99
2018-07-22T10:57:33.025Z,35.07
2018-07-22T10:58:33.601Z,35.01
2018-07-22T10:59:34.176Z,35.07
2018-07-22T11:00:34.750Z,35.26
2018-07-22T11:01:35.328Z,35.32
2018-07-22T11:02:35.903Z,35.11
2018-07-22T11:03:36.486Z,34.93
2018-07-22T11:04:37.048Z,34.93
2018-07-22T11:05:37.622Z,35.21
2018-07-22T11:06:38.200Z,35.36
2018-07-22T11:07:38.782Z,35.48
2018-07-22T11:08:39.355Z,35.54
2018-07-22T11:09:39.930Z,35.51
2018-07-22T11:10:40.504Z,35.33
2018-07-22T11:11:41.079Z,35.08
2018-07-22T11:12:41.653Z,35.30
2018-07-22T11:13:42.225Z,35.18
2018-07-22T11:14:42.864Z,34.92
2018-07-22T11:15:43.371Z,34.63
2018-07-22T11:16:43.939Z,34.76
2018-07-22T11:17:44.518Z,34.98
2018-07-22T11:18:45.097Z,35.25
2018-07-22T11:19:45.670Z,35.39
2018-07-22T11:20:46.257Z,35.45
2018-07-22T11:21:46.821Z,35.51
2018-07-22T11:22:47.397Z,35.44
2018-07-22T11:23:47.974Z,35.40
2018-07-22T11:24:48.552Z,35.51
2018-07-22T11:25:49.129Z,35.42
2018-07-22T11:26:49.706Z,35.67
2018-07-22T11:27:50.277Z,35.70
2018-07-22T11:28:50.964Z,35.55
2018-07-22T11:29:51.439Z,35.36
2018-07-22T11:30:52.006Z,35.50
2018-07-22T11:31:52.572Z,35.73
2018-07-22T11:32:53.147Z,35.85
2018-07-22T11:33:53.722Z,35.58
2018-07-22T11:34:54.303Z,35.67
2018-07-22T11:35:54.917Z,35.84
2018-07-22T11:36:55.453Z,35.91
2018-07-22T11:37:56.028Z,35.73
2018-07-22T11:38:56.605Z,35.28
2018-07-22T11:39:57.183Z,35.33
2018-07-22T11:40:57.764Z,35.45
2018-07-22T11:41:58.344Z,35.82
2018-07-22T11:42:58.918Z,35.96
2018-07-22T11:43:59.582Z,36.06
2018-07-22T11:45:00.063Z,36.19
2018-07-22T11:46:00.637Z,36.08
2018-07-22T11:47:01.207Z,36.01
2018-07-22T11:48:01.783Z,35.44
2018-07-22T11:49:02.365Z,35.32
2018-07-22T11:50:02.945Z,35.66
2018-07-22T11:51:03.521Z,35.91
2018-07-22T11:52:04.101Z,35.96
2018-07-22T11:53:04.682Z,35.89
2018-07-22T11:54:05.261Z,35.93
2018-07-22T11:55:05.834Z,35.69
2018-07-22T11:56:06.409Z,36.00
2018-07-22T11:57:06.990Z,36.14
2018-07-22T11:58:07.561Z,36.52
2018-07-22T11:59:08.136Z,36.97
2018-07-22T12:00:08.759Z,37.19
2018-07-22T12:01:09.283Z,37.05
2018-07-22T12:02:09.852Z,36.94
2018-07-22T12:03:10.430Z,37.12
2018-07-22T12:04:11.009Z,37.41
2018-07-22T12:05:11.586Z,37.43
2018-07-22T12:06:12.160Z,37.16
2018-07-22T12:07:12.739Z,37.17
2018-07-22T12:08:13.315Z,37.56
2018-07-22T12:09:13.885Z,37.56
2018-07-22T12:10:14.461Z,37.43
2018-07-22T12:11:15.035Z,37.61
2018-07-22T12:12:15.620Z,37.80
2018-07-22T12:13:16.187Z,37.88
2018-07-22T12:14:16.762Z,37.86
2018-07-22T12:15:17.410Z,38.03
2018-07-22T12:16:17.920Z,38.26
2018-07-22T12:17:18.498Z,38.46
2018-07-22T12:18:19.081Z,38.55
2018-07-22T12:19:19.657Z,38.48
2018-07-22T12:20:20.230Z,38.51
2018-07-22T12:21:20.869Z,38.29
2018-07-22T12:22:21.384Z,38.05
2018-07-22T12:23:21.963Z,37.51
2018-07-22T12:24:22.539Z,37.16
2018-07-22T12:25:23.119Z,36.85
2018-07-22T12:26:23.696Z,37.13
2018-07-22T12:27:24.273Z,37.42
2018-07-22T12:28:24.853Z,37.58
2018-07-22T12:29:25.426Z,37.56
2018-07-22T12:30:26.004Z,37.86
2018-07-22T12:31:26.574Z,37.73
2018-07-22T12:32:27.144Z,37.70
2018-07-22T12:33:27.722Z,37.74
2018-07-22T12:34:28.375Z,37.70
2018-07-22T12:35:28.874Z,37.71
2018-07-22T12:36:29.451Z,37.55
2018-07-22T12:37:30.032Z,37.47
2018-07-22T12:38:30.609Z,37.38
2018-07-22T12:39:31.183Z,37.56
2018-07-22T12:40:31.776Z,37.59
2018-07-22T12:41:32.339Z,37.46
2018-07-22T12:42:32.913Z,37.39
2018-07-22T12:43:33.486Z,37.19
2018-07-22T12:44:34.064Z,37.51
2018-07-22T12:45:34.646Z,36.86
2018-07-22T12:46:35.292Z,36.83
2018-07-22T12:47:35.786Z,36.60
2018-07-22T12:48:36.356Z,36.75
2018-07-22T12:49:36.933Z,37.10
2018-07-22T12:50:37.512Z,37.31
2018-07-22T12:51:38.094Z,37.39
2018-07-22T12:52:38.668Z,36.94
2018-07-22T12:53:39.253Z,36.98
2018-07-22T12:54:39.819Z,37.16
2018-07-22T12:55:40.388Z,36.92
2018-07-22T12:56:40.973Z,36.82
2018-07-22T12:57:41.541Z,36.98
2018-07-22T12:58:42.125Z,36.38
2018-07-22T12:59:42.699Z,36.76